Canal Point, Florida
Current Conditions -  °F | °C
As of 3:47 PM on Monday 24 Nov 2014 (Local Time) from KSUA Reporting Station
Broken Clouds Broken Clouds  
Wind Chill: 88°   Ceiling: 4500
Heat Index: 90°   Visibility: 7mi
Dew Point: 66°   Wind: 12mph
Humidity: 49%   Direction: 200°SSW
Pressure: 29.96"   Gusts: 17mph
Location:  26.86°N, 80.63°W
Report Text: KSUA 242047Z 20010G15KT 7SM SCT025 BKN045 31/19 A2996
Loading
Personal Weather Stations






























Interactive Weather Map New forecast layout! Learn more

10-Day Weather Forecast

Advertisements
Track Severe Weather on mobile